Time;durP1;ratioP1;P1;durP2;ratioP2;P2;SDS_P1;SDS_P2;PMS_P1;PMS_P2;Temp;Humidity;BMP_temperature;BMP_pressure;BME280_temperature;BME280_humidity;BME280_pressure;Samples;Min_cycle;Max_cycle;Signal;HPM_P1;HPM_P2
2024/02/08 00:00:42;;;;;;;;;46.33;28.33;;;;;-143.90;100.00;75569.19;4850416;28;101879;-73
2024/02/08 00:03:11;;;;;;;;;33.33;27.00;;;;;-143.90;100.00;75565.03;4852260;28;106521;-73
2024/02/08 00:05:38;;;;;;;;;34.67;25.33;;;;;-143.90;100.00;75562.97;4850002;28;103662;-73
2024/02/08 00:08:06;;;;;;;;;37.67;32.00;;;;;-143.90;100.00;75560.91;4853294;28;102334;-73
2024/02/08 00:10:32;;;;;;;;;45.00;38.33;;;;;-143.90;100.00;75567.13;4854129;28;102909;-73
2024/02/08 00:12:59;;;;;;;;;52.00;37.67;;;;;-143.90;100.00;75552.63;4856242;28;102260;-73
2024/02/08 00:15:29;;;;;;;;;38.67;31.00;;;;;-143.90;100.00;75565.03;4848076;28;104889;-73
2024/02/08 00:17:56;;;;;;;;;29.00;26.00;;;;;-143.90;100.00;75562.97;4853952;28;102703;-73
2024/02/08 00:20:24;;;;;;;;;25.67;22.33;;;;;-143.90;100.00;75567.13;4850906;28;101987;-72
2024/02/08 00:22:52;;;;;;;;;22.33;20.00;;;;;-143.90;100.00;75565.03;4854889;28;102095;-73
2024/02/08 00:25:19;;;;;;;;;23.00;19.67;;;;;-143.90;100.00;75560.91;4856183;28;103330;-73
2024/02/08 00:27:47;;;;;;;;;20.33;18.00;;;;;-143.90;100.00;75562.97;4848949;28;102060;-73
2024/02/08 00:30:15;;;;;;;;;21.33;16.00;;;;;-143.90;100.00;75569.19;4853629;28;102926;-72
2024/02/08 00:32:46;;;;;;;;;20.00;16.00;;;;;-143.90;100.00;75560.91;4840542;28;102320;-73
2024/02/08 00:35:17;;;;;;;;;23.00;17.00;;;;;-143.90;100.00;75556.78;4854054;28;103395;-72
2024/02/08 00:37:48;;;;;;;;;16.00;12.25;;;;;-143.90;100.00;75565.03;4851538;28;102048;-73
2024/02/08 00:40:17;;;;;;;;;14.00;13.50;;;;;-143.90;100.00;75571.25;4859697;28;102042;-73
2024/02/08 00:42:47;;;;;;;;;20.00;13.33;;;;;-143.90;100.00;75571.25;4851779;28;102025;-73
2024/02/08 00:45:21;;;;;;;;;16.50;12.25;;;;;-143.90;100.00;75571.25;4854356;28;103543;-73
2024/02/08 00:47:54;;;;;;;;;6.00;6.00;;;;;-143.90;100.00;75579.53;4849578;28;102529;-72
2024/02/08 00:50:21;;;;;;;;;9.00;6.50;;;;;-143.90;100.00;75573.31;4855885;28;102306;-73
2024/02/08 00:52:48;;;;;;;;;11.75;8.75;;;;;-143.90;100.00;75569.19;4858634;28;103106;-74
2024/02/08 00:55:17;;;;;;;;;13.25;12.25;;;;;-143.90;100.00;75565.03;4854040;28;110509;-73
2024/02/08 00:57:44;;;;;;;;;8.75;8.75;;;;;-143.90;100.00;75567.13;4830065;28;101789;-73
2024/02/08 01:00:11;;;;;;;;;9.00;7.00;;;;;-143.90;100.00;75569.19;4854750;28;103433;-74
2024/02/08 01:02:41;;;;;;;;;12.00;10.25;;;;;-143.90;100.00;75560.91;4830688;28;102750;-73
2024/02/08 01:05:08;;;;;;;;;7.50;6.50;;;;;-143.90;100.00;75562.97;4855769;28;105003;-73
2024/02/08 01:07:35;;;;;;;;;8.75;8.25;;;;;-143.90;100.00;75562.97;4846222;28;102022;-73
2024/02/08 01:10:02;;;;;;;;;7.00;5.50;;;;;-143.90;100.00;75567.13;4854489;28;101875;-74
2024/02/08 01:12:29;;;;;;;;;8.75;7.00;;;;;-143.90;100.00;75573.31;4855862;28;102463;-73
2024/02/08 01:14:55;;;;;;;;;13.75;11.00;;;;;-143.90;100.00;75567.13;4845429;28;103455;-72
2024/02/08 01:17:22;;;;;;;;;9.25;8.00;;;;;-143.90;100.00;75552.63;4847820;28;103508;-71
2024/02/08 01:19:50;;;;;;;;;12.50;10.00;;;;;-143.90;100.00;75554.72;4853621;28;102988;-72
2024/02/08 01:22:19;;;;;;;;;10.50;8.75;;;;;-143.90;100.00;75560.91;4861812;28;102297;-72
2024/02/08 01:24:49;;;;;;;;;10.75;9.00;;;;;-143.90;100.00;75552.63;4863818;28;107888;-71
2024/02/08 01:27:20;;;;;;;;;13.25;8.00;;;;;-143.90;100.00;75558.84;4861222;28;102039;-72
2024/02/08 01:29:50;;;;;;;;;10.50;8.00;;;;;-143.90;100.00;75544.38;4860317;28;103004;-72
2024/02/08 01:32:17;;;;;;;;;9.75;7.50;;;;;-143.90;100.00;75552.63;4867949;28;101799;-72
2024/02/08 01:34:44;;;;;;;;;9.00;8.75;;;;;-143.90;100.00;75552.63;4863676;28;108404;-72
2024/02/08 01:37:15;;;;;;;;;15.00;8.75;;;;;-143.90;100.00;75548.50;4864090;28;101872;-72
2024/02/08 01:39:43;;;;;;;;;9.75;9.00;;;;;-143.90;100.00;75550.56;4859686;28;102132;-72
2024/02/08 01:42:19;;;;;;;;;9.25;8.00;;;;;-143.90;100.00;75550.56;4862843;28;101994;-72
2024/02/08 01:44:47;;;;;;;;;12.75;9.00;;;;;-143.90;100.00;75556.78;4863074;28;108116;-72
2024/02/08 01:47:17;;;;;;;;;16.75;9.50;;;;;-143.90;100.00;75548.50;4862755;28;103673;-72
2024/02/08 01:49:46;;;;;;;;;9.25;6.50;;;;;-143.90;100.00;75552.63;4855744;28;101892;-72
2024/02/08 01:52:18;;;;;;;;;10.00;9.00;;;;;-143.90;100.00;75550.56;4863091;28;101757;-72
2024/02/08 01:54:48;;;;;;;;;8.75;8.75;;;;;-143.90;100.00;75546.44;4857137;28;108422;-72
2024/02/08 01:57:15;;;;;;;;;11.50;8.50;;;;;-143.90;100.00;75546.44;4853201;28;102265;-72
2024/02/08 01:59:47;;;;;;;;;8.50;8.50;;;;;-143.90;100.00;75550.56;4857521;28;101949;-72
2024/02/08 02:02:16;;;;;;;;;8.00;5.75;;;;;-143.90;100.00;75550.56;4861149;28;101975;-72
2024/02/08 02:04:42;;;;;;;;;8.00;8.00;;;;;-143.90;100.00;75546.44;4861310;28;103393;-72
2024/02/08 02:07:09;;;;;;;;;10.00;9.00;;;;;-143.90;100.00;75542.31;4841940;28;102252;-72
2024/02/08 02:09:36;;;;;;;;;8.75;8.00;;;;;-143.90;100.00;75540.22;4853258;28;103235;-72
2024/02/08 02:12:10;;;;;;;;;11.50;6.00;;;;;-143.90;100.00;75536.09;4848065;28;105042;-72
2024/02/08 02:14:38;;;;;;;;;9.00;8.00;;;;;-143.90;100.00;75548.50;4864368;28;103423;-72
2024/02/08 02:17:16;;;;;;;;;17.00;13.25;;;;;-143.90;100.00;75552.63;4834277;28;102224;-72
2024/02/08 02:19:43;;;;;;;;;15.25;13.50;;;;;-143.90;100.00;75544.38;4849577;28;102015;-72
2024/02/08 02:22:13;;;;;;;;;13.25;12.25;;;;;-143.90;100.00;75534.03;4865240;28;102529;-72
2024/02/08 02:24:41;;;;;;;;;11.00;9.50;;;;;-143.90;100.00;75546.44;4863694;28;103357;-73
2024/02/08 02:27:10;;;;;;;;;15.00;13.33;;;;;-143.90;100.00;75544.38;4861088;28;102711;-72
2024/02/08 02:29:39;;;;;;;;;13.75;10.00;;;;;-143.90;100.00;75550.56;4853136;28;102442;-73
2024/02/08 02:32:13;;;;;;;;;12.67;10.00;;;;;-143.90;100.00;75548.50;4859502;28;101836;-73
2024/02/08 02:34:44;;;;;;;;;13.00;9.50;;;;;-143.90;100.00;75542.31;4841330;28;103372;-73
2024/02/08 02:37:11;;;;;;;;;7.50;6.00;;;;;-143.90;100.00;75544.38;4863056;28;102090;-72
2024/02/08 02:39:38;;;;;;;;;6.50;6.50;;;;;-143.90;100.00;75544.38;4848358;28;101929;-73
2024/02/08 02:42:06;;;;;;;;;5.50;5.50;;;;;-143.90;100.00;75538.16;4860979;28;101796;-72
2024/02/08 02:44:34;;;;;;;;;9.75;8.50;;;;;-143.90;100.00;75536.09;4857630;28;103156;-72
2024/02/08 02:47:04;;;;;;;;;8.50;5.75;;;;;-143.90;100.00;75531.97;4859620;28;102313;-72
2024/02/08 02:49:36;;;;;;;;;5.75;4.00;;;;;-143.90;100.00;75538.16;4857403;28;101818;-72
2024/02/08 02:52:09;;;;;;;;;5.25;5.25;;;;;-143.90;100.00;75536.09;4864816;28;102863;-72
2024/02/08 02:54:36;;;;;;;;;5.75;4.25;;;;;-143.90;100.00;75527.81;4861766;28;103524;-72
2024/02/08 02:57:03;;;;;;;;;4.50;4.00;;;;;-143.90;100.00;75531.97;4862157;28;102439;-72
2024/02/08 02:59:30;;;;;;;;;5.00;4.25;;;;;-143.90;100.00;75531.97;4856930;28;101642;-72
2024/02/08 03:01:57;;;;;;;;;4.75;4.75;;;;;-143.90;100.00;75531.97;4865573;28;101768;-72
2024/02/08 03:04:24;;;;;;;;;3.00;3.00;;;;;-143.90;100.00;75527.81;4866552;28;103515;-72
2024/02/08 03:06:54;;;;;;;;;9.75;5.50;;;;;-143.90;100.00;75531.97;4868786;28;102260;-72
2024/02/08 03:09:27;;;;;;;;;5.00;3.50;;;;;-143.90;100.00;75531.97;4864810;28;102180;-73
2024/02/08 03:11:57;;;;;;;;;3.50;3.50;;;;;-143.90;100.00;75540.22;4863749;28;103018;-73
2024/02/08 03:14:27;;;;;;;;;5.00;5.00;;;;;-143.90;100.00;75538.16;4874674;28;103574;-73
2024/02/08 03:17:00;;;;;;;;;8.50;5.00;;;;;-143.90;100.00;75540.22;4875234;28;105049;-73
2024/02/08 03:19:28;;;;;;;;;5.50;4.00;;;;;-143.90;100.00;75536.09;4866483;28;101841;-73
2024/02/08 03:21:56;;;;;;;;;4.50;4.00;;;;;-143.90;100.00;75538.16;4870204;28;101882;-73
2024/02/08 03:24:24;;;;;;;;;4.50;3.00;;;;;-143.90;100.00;75536.09;4868809;28;103344;-73
2024/02/08 03:26:51;;;;;;;;;4.75;2.50;;;;;-143.90;100.00;75538.16;4850783;28;102206;-73
2024/02/08 03:29:17;;;;;;;;;3.00;2.00;;;;;-143.90;100.00;75540.22;4877603;28;102254;-73
2024/02/08 03:31:45;;;;;;;;;4.25;4.00;;;;;-143.90;100.00;75542.31;4867308;28;102763;-73
2024/02/08 03:34:19;;;;;;;;;5.50;5.00;;;;;-143.90;100.00;75540.22;4872909;28;103563;-73
2024/02/08 03:36:46;;;;;;;;;4.75;3.50;;;;;-143.90;100.00;75540.22;4867546;28;102982;-72
2024/02/08 03:39:25;;;;;;;;;3.00;3.00;;;;;-143.90;100.00;75542.31;4866060;28;101594;-73
2024/02/08 03:42:04;;;;;;;;;2.00;2.00;;;;;-143.90;100.00;75540.22;4865547;28;101884;-73
2024/02/08 03:44:31;;;;;;;;;4.00;3.00;;;;;-143.90;100.00;75534.03;4873396;28;105417;-73
2024/02/08 03:47:04;;;;;;;;;2.50;2.50;;;;;-143.90;100.00;75529.91;4864017;28;101657;-73
2024/02/08 03:49:32;;;;;;;;;4.50;2.00;;;;;-143.90;100.00;75529.91;4849850;28;101571;-73
2024/02/08 03:51:59;;;;;;;;;3.50;3.50;;;;;-143.90;100.00;75529.91;4856283;28;101849;-73
2024/02/08 03:54:30;;;;;;;;;4.00;2.00;;;;;-143.90;100.00;75538.16;4853129;28;103843;-73
2024/02/08 03:57:04;;;;;;;;;1.25;1.25;;;;;-143.90;100.00;75540.22;4872984;28;101958;-73
2024/02/08 03:59:33;;;;;;;;;2.00;2.00;;;;;-143.90;100.00;75542.31;4849577;28;101648;-73
2024/02/08 04:02:01;;;;;;;;;4.00;1.75;;;;;-143.90;100.00;75540.22;4868429;28;102087;-73
2024/02/08 04:04:49;;;;;;;;;1.00;1.00;;;;;-143.90;100.00;75540.22;4866743;28;103515;-73
2024/02/08 04:07:34;;;;;;;;;4.50;2.00;;;;;-143.90;100.00;75544.38;4859747;28;101767;-73
2024/02/08 04:53:30;;;;;;;;;5.25;4.25;;;;;-143.90;100.00;75552.63;4860411;28;104529;-73
2024/02/08 04:54:09;;;;;;;;;5.25;2.00;;;;;-143.90;100.00;75534.03;4860833;28;103338;-73
2024/02/08 04:56:36;;;;;;;;;8.50;4.75;;;;;-143.90;100.00;75540.22;4862011;28;101564;-72
2024/02/08 04:59:06;;;;;;;;;5.00;4.25;;;;;-143.90;100.00;75544.38;4866510;28;103476;-73
2024/02/08 05:01:49;;;;;;;;;4.50;4.50;;;;;-143.90;100.00;75540.22;4859200;28;102024;-72
2024/02/08 05:04:18;;;;;;;;;5.00;5.00;;;;;-143.90;100.00;75542.31;4855710;28;102289;-73
2024/02/08 05:06:46;;;;;;;;;9.50;8.00;;;;;-143.90;100.00;75542.31;4867236;28;101788;-73
2024/02/08 05:09:19;;;;;;;;;6.00;5.00;;;;;-143.90;100.00;75536.09;4866724;28;103891;-73
2024/02/08 05:11:48;;;;;;;;;8.25;4.00;;;;;-143.90;100.00;75534.03;4855992;28;101715;-73
2024/02/08 05:14:19;;;;;;;;;4.00;3.00;;;;;-143.90;100.00;75529.91;4864072;28;102286;-73
2024/02/08 05:16:46;;;;;;;;;4.00;2.00;;;;;-143.90;100.00;75529.91;4865908;28;104471;-73
2024/02/08 05:19:14;;;;;;;;;5.25;2.00;;;;;-143.90;100.00;75531.97;4861061;28;103600;-73
2024/02/08 05:21:41;;;;;;;;;1.50;1.50;;;;;-143.90;100.00;75531.97;4841375;28;101880;-73
2024/02/08 05:24:12;;;;;;;;;4.00;2.50;;;;;-143.90;100.00;75531.97;4865679;28;101669;-73
2024/02/08 05:26:40;;;;;;;;;4.00;2.50;;;;;-143.90;100.00;75536.09;4863511;28;101840;-73
2024/02/08 05:29:13;;;;;;;;;3.50;2.00;;;;;-143.90;100.00;75534.03;4867761;28;103578;-73
2024/02/08 05:31:41;;;;;;;;;2.50;2.00;;;;;-143.90;100.00;75529.91;4853382;28;104263;-73
2024/02/08 05:34:10;;;;;;;;;4.50;4.25;;;;;-143.90;100.00;75525.75;4867984;28;102314;-73
2024/02/08 05:36:44;;;;;;;;;3.50;2.00;;;;;-143.90;100.00;75527.81;4866319;28;102244;-73
2024/02/08 05:39:12;;;;;;;;;3.50;2.00;;;;;-143.90;100.00;75523.69;4862597;28;104047;-73
2024/02/08 05:41:44;;;;;;;;;5.00;4.75;;;;;-143.90;100.00;75536.09;4848344;28;102277;-73
2024/02/08 05:44:14;;;;;;;;;8.00;5.00;;;;;-143.90;100.00;75540.22;4867240;28;101682;-73
2024/02/08 05:46:40;;;;;;;;;8.00;7.00;;;;;-143.90;100.00;75544.38;4870285;28;101619;-73
2024/02/08 05:49:14;;;;;;;;;11.50;11.00;;;;;-143.90;100.00;75540.22;4871399;28;103672;-73
2024/02/08 05:51:51;;;;;;;;;15.50;12.00;;;;;-143.90;100.00;75542.31;4857833;28;101794;-73
2024/02/08 05:54:36;;;;;;;;;12.00;9.00;;;;;-143.90;100.00;75548.50;4868936;28;103206;-73
2024/02/08 05:57:06;;;;;;;;;11.00;8.00;;;;;-143.90;100.00;75544.38;4857432;28;102153;-73
2024/02/08 05:59:36;;;;;;;;;11.25;8.00;;;;;-143.90;100.00;75546.44;4855745;28;103373;-73
2024/02/08 06:02:14;;;;;;;;;8.50;7.00;;;;;-143.90;100.00;75554.72;4867980;28;102491;-73
2024/02/08 06:04:49;;;;;;;;;8.75;5.00;;;;;-143.90;100.00;75548.50;4867505;28;103772;-73
2024/02/08 06:07:18;;;;;;;;;6.50;5.00;;;;;-143.90;100.00;75548.50;4864603;28;102993;-73
2024/02/08 06:15:14;;;;;;;;;8.50;7.25;;;;;-143.90;100.00;75540.22;4866314;28;102626;-73
2024/02/08 06:17:45;;;;;;;;;8.75;6.50;;;;;-143.90;100.00;75544.38;4856268;28;105685;-73
2024/02/08 06:20:14;;;;;;;;;5.00;4.50;;;;;-143.90;100.00;75540.22;4862950;28;103394;-72
2024/02/08 06:22:43;;;;;;;;;5.00;4.00;;;;;-143.90;100.00;75546.44;4869081;28;103518;-73
2024/02/08 06:25:27;;;;;;;;;12.00;6.00;;;;;-143.90;100.00;75544.38;4872068;28;101863;-72
2024/02/08 06:27:58;;;;;;;;;12.50;9.25;;;;;-143.90;100.00;75544.38;4872568;28;102030;-73
2024/02/08 06:30:30;;;;;;;;;8.50;5.00;;;;;-143.90;100.00;75544.38;4880392;28;103372;-72
2024/02/08 06:33:07;;;;;;;;;4.75;4.00;;;;;-143.90;100.00;75540.22;4870875;28;101688;-72
2024/02/08 06:35:39;;;;;;;;;8.00;5.75;;;;;-143.90;100.00;75534.03;4868587;28;101989;-72
2024/02/08 06:38:13;;;;;;;;;3.50;3.50;;;;;-143.90;100.00;75529.91;4872372;28;101973;-72
2024/02/08 06:40:50;;;;;;;;;7.75;6.00;;;;;-143.90;100.00;75536.09;4873011;28;103575;-72
2024/02/08 07:38:07;;;;;;;;;5.25;4.00;;;;;-143.90;100.00;75457.53;4875538;28;101663;-73
2024/02/08 07:40:37;;;;;;;;;2.75;2.75;;;;;-143.90;100.00;75457.53;4859254;28;101811;-73
2024/02/08 07:45:48;;;;;;;;;8.75;8.00;;;;;-143.90;100.00;75451.31;4865803;28;103464;-73
2024/02/08 07:51:05;;;;;;;;;11.00;7.50;;;;;-143.90;100.00;75436.84;4872417;28;105175;-73
2024/02/08 07:53:44;;;;;;;;;11.50;9.25;;;;;-143.90;100.00;75424.44;4865739;28;102009;-73
2024/02/08 07:59:03;;;;;;;;;6.25;5.50;;;;;-143.90;100.00;75397.56;4872135;28;102048;-73
2024/02/08 08:01:38;;;;;;;;;11.25;8.00;;;;;-143.90;100.00;75391.38;4863602;28;102071;-74
2024/02/08 08:04:09;;;;;;;;;5.00;4.00;;;;;-143.90;100.00;75370.69;4871589;28;102135;-73
2024/02/08 08:06:50;;;;;;;;;7.25;6.00;;;;;-143.90;100.00;75366.56;4870173;28;103558;-74
2024/02/08 08:09:21;;;;;;;;;23.00;21.25;;;;;-143.90;100.00;75381.03;4870548;28;102149;-74
2024/02/08 08:11:51;;;;;;;;;29.67;22.67;;;;;-143.90;100.00;75383.09;4862415;28;103327;-73
2024/02/08 08:15:22;;;;;;;;;43.00;34.33;;;;;-143.90;100.00;75432.72;4871328;28;102241;-74
2024/02/08 08:19:44;;;;;;;;;29.75;26.00;;;;;-143.90;100.00;75438.94;4859313;28;101940;-74
2024/02/08 08:28:09;;;;;;;;;29.50;22.00;;;;;-143.90;100.00;75434.78;4859728;28;107960;-72
2024/02/08 08:30:38;;;;;;;;;28.50;25.50;;;;;-143.90;100.00;75436.84;4865016;28;102862;-74
2024/02/08 08:40:49;;;;;;;;;28.75;21.00;;;;;-143.90;100.00;75412.03;4869431;28;101791;-73
2024/02/08 08:43:22;;;;;;;;;27.25;21.75;;;;;-143.90;100.00;75420.31;4876610;28;102360;-74
2024/02/08 08:46:00;;;;;;;;;24.25;17.50;;;;;-143.90;100.00;75418.25;4871081;28;102759;-74
2024/02/08 08:48:33;;;;;;;;;17.75;13.50;;;;;-143.90;100.00;75395.50;4877990;28;108249;-74
2024/02/08 08:51:10;;;;;;;;;22.00;18.50;;;;;-143.90;100.00;75374.84;4868973;28;102478;-74
2024/02/08 08:53:44;;;;;;;;;22.50;20.00;;;;;-143.90;100.00;75395.50;4873931;28;102177;-74
2024/02/08 08:56:11;;;;;;;;;16.00;13.00;;;;;-143.90;100.00;75399.63;4875372;28;101809;-74
2024/02/08 08:58:39;;;;;;;;;26.00;21.75;;;;;-143.90;100.00;75403.78;4870130;28;103456;-74
2024/02/08 09:01:15;;;;;;;;;20.50;18.75;;;;;-143.90;100.00;75399.63;4868345;28;101688;-72
2024/02/08 09:03:55;;;;;;;;;22.50;17.25;;;;;-143.90;100.00;75385.16;4870805;28;101706;-73
2024/02/08 09:06:25;;;;;;;;;28.50;22.25;;;;;-143.90;100.00;75399.63;4854523;28;102309;-73
2024/02/08 09:08:56;;;;;;;;;24.00;22.75;;;;;-143.90;100.00;75389.31;4876668;28;108070;-73
2024/02/08 09:11:24;;;;;;;;;30.50;23.50;;;;;-143.90;100.00;75383.09;4871112;28;101913;-73
2024/02/08 09:13:53;;;;;;;;;21.00;18.50;;;;;-143.90;100.00;75374.84;4867197;28;102271;-73
2024/02/08 09:21:39;;;;;;;;;32.50;25.75;;;;;-143.90;100.00;75368.63;4868418;28;101752;-73
2024/02/08 09:24:07;;;;;;;;;30.75;22.50;;;;;-143.90;100.00;75366.56;4871321;28;101699;-73
2024/02/08 09:26:48;;;;;;;;;18.25;18.00;;;;;-143.90;100.00;75339.69;4873681;28;102053;-73
2024/02/08 09:29:23;;;;;;;;;12.00;11.50;;;;;-143.90;100.00;75310.75;4867125;28;103502;-73
2024/02/08 09:32:00;;;;;;;;;19.50;17.50;;;;;-143.90;100.00;75304.53;4870519;28;101977;-73
2024/02/08 09:34:38;;;;;;;;;20.75;16.50;;;;;-143.90;100.00;75279.72;4875013;28;102505;-73
2024/02/08 09:37:08;;;;;;;;;14.50;13.50;;;;;-143.90;100.00;75259.06;4873068;28;102634;-73
2024/02/08 09:42:37;;;;;;;;;20.25;18.50;;;;;-143.90;100.00;75254.91;4869554;28;101613;-73
2024/02/08 09:45:18;;;;;;;;;21.25;18.50;;;;;-143.90;100.00;75259.06;4870674;28;101978;-73
2024/02/08 09:47:52;;;;;;;;;27.25;21.50;;;;;-143.90;100.00;75288.00;4870341;28;103057;-73
2024/02/08 09:50:47;;;;;;;;;24.00;21.25;;;;;-143.90;100.00;75288.00;4872616;28;108430;-73
2024/02/08 09:53:27;;;;;;;;;22.50;19.00;;;;;-143.90;100.00;75283.84;4871110;28;102055;-72
2024/02/08 09:55:57;;;;;;;;;26.75;21.25;;;;;-143.90;100.00;75275.59;4862016;28;101602;-72
2024/02/08 09:58:37;;;;;;;;;20.25;17.75;;;;;-143.90;100.00;75265.25;4869736;28;102020;-73
2024/02/08 10:01:21;;;;;;;;;14.25;12.50;;;;;-143.90;100.00;75211.50;4870049;28;108070;-73
2024/02/08 10:03:49;;;;;;;;;14.75;13.25;;;;;-143.90;100.00;75194.97;4848015;28;101758;-72
2024/02/08 10:06:38;;;;;;;;;16.50;13.50;;;;;-143.90;100.00;75170.16;4872207;28;101766;-71
2024/02/08 10:11:58;;;;;;;;;20.75;19.25;;;;;-143.90;100.00;75124.66;4865887;28;108591;-73
2024/02/08 10:14:32;;;;;;;;;21.75;18.75;;;;;-143.90;100.00;75124.66;4862471;28;101611;-74
2024/02/08 10:17:14;;;;;;;;;19.50;15.75;;;;;-143.90;100.00;75135.00;4871869;28;103257;-74
2024/02/08 10:23:09;;;;;;;;;16.25;15.50;;;;;-143.90;100.00;75135.00;4871298;28;108063;-73
2024/02/08 10:28:22;;;;;;;;;16.50;12.25;;;;;-143.90;100.00;75168.09;4870358;28;102032;-73
2024/02/08 10:30:59;;;;;;;;;14.50;11.50;;;;;-143.90;100.00;75161.88;4874775;28;102040;-73
2024/02/08 10:33:35;;;;;;;;;6.75;6.00;;;;;-143.90;100.00;75135.00;4855901;28;109044;-74
2024/02/08 10:36:15;;;;;;;;;8.50;6.50;;;;;-143.90;100.00;75118.47;4858668;28;102035;-74
2024/02/08 10:41:37;;;;;;;;;17.00;15.00;;;;;-143.90;100.00;75139.16;4873207;28;101969;-74
2024/02/08 10:44:05;;;;;;;;;12.50;6.25;;;;;-143.90;100.00;75147.41;4867812;28;108448;-74
2024/02/08 10:46:33;;;;;;;;;13.00;11.00;;;;;-143.90;100.00;75176.34;4876028;28;101550;-74
2024/02/08 10:49:01;;;;;;;;;12.50;10.50;;;;;-143.90;100.00;75159.81;4875573;28;102116;-74
2024/02/08 10:51:29;;;;;;;;;13.75;13.25;;;;;-143.90;100.00;75170.16;4864893;28;102102;-74
2024/02/08 10:54:14;;;;;;;;;14.00;10.75;;;;;-143.90;100.00;75145.34;4871471;28;103438;-74
2024/02/08 10:56:48;;;;;;;;;12.25;9.75;;;;;-143.90;100.00;75188.75;4870817;28;101902;-74
2024/02/08 10:59:39;;;;;;;;;2.50;1.50;;;;;-143.90;100.00;75166.03;4866514;28;102049;-74
2024/02/08 11:02:31;;;;;;;;;15.00;13.75;;;;;-143.90;100.00;75163.94;4874011;28;101835;-74
2024/02/08 11:05:21;;;;;;;;;10.75;8.50;;;;;-143.90;100.00;75124.66;4870571;28;108025;-74
2024/02/08 11:07:48;;;;;;;;;9.75;9.00;;;;;-143.90;100.00;75101.94;4865586;28;101975;-73
2024/02/08 11:10:23;;;;;;;;;7.75;7.00;;;;;-143.90;100.00;75091.59;4868765;28;101641;-73
2024/02/08 11:13:10;;;;;;;;;7.00;6.75;;;;;-143.90;100.00;75085.38;4871194;28;101696;-72
2024/02/08 11:15:49;;;;;;;;;8.25;8.25;;;;;-143.90;100.00;75087.47;4860092;28;107937;-73
2024/02/08 11:18:33;;;;;;;;;15.00;11.25;;;;;-143.90;100.00;75091.59;4877415;28;102238;-73
2024/02/08 11:21:04;;;;;;;;;9.75;8.00;;;;;-143.90;100.00;75075.06;4874259;28;102402;-73
2024/02/08 11:23:32;;;;;;;;;10.00;8.50;;;;;-143.90;100.00;75052.31;4868187;28;104086;-73
2024/02/08 11:26:06;;;;;;;;;10.00;6.00;;;;;-143.90;100.00;75044.03;4865877;28;103471;-73
2024/02/08 11:28:44;;;;;;;;;8.25;6.00;;;;;-143.90;100.00;75046.09;4870730;28;101883;-73
2024/02/08 11:31:13;;;;;;;;;5.75;5.25;;;;;-143.90;100.00;75039.91;4874248;28;101616;-74
2024/02/08 11:33:42;;;;;;;;;7.00;6.00;;;;;-143.90;100.00;75025.44;4858404;28;101790;-73
2024/02/08 11:36:21;;;;;;;;;6.25;5.25;;;;;-143.90;100.00;75019.22;4873806;28;103483;-74
2024/02/08 11:38:57;;;;;;;;;3.75;2.00;;;;;-143.90;100.00;75025.44;4870976;28;101713;-73
2024/02/08 11:41:28;;;;;;;;;5.50;5.00;;;;;-143.90;100.00;75031.63;4865377;28;101915;-72
2024/02/08 11:44:02;;;;;;;;;17.50;11.25;;;;;-143.90;100.00;75037.84;4855134;28;101655;-73
2024/02/08 11:46:45;;;;;;;;;9.00;8.00;;;;;-143.90;100.00;75072.97;4871688;28;103772;-73
2024/02/08 11:49:15;;;;;;;;;19.50;14.50;;;;;-143.90;100.00;75114.34;4874024;28;101591;-72
2024/02/08 11:51:48;;;;;;;;;12.00;12.00;;;;;-143.90;100.00;75087.47;4866193;28;102018;-73
2024/02/08 11:54:28;;;;;;;;;11.75;11.00;;;;;-143.90;100.00;75083.31;4870797;28;101551;-73
2024/02/08 11:56:57;;;;;;;;;9.75;7.00;;;;;-143.90;100.00;75052.31;4867395;28;107979;-73
2024/02/08 11:59:26;;;;;;;;;6.50;5.75;;;;;-143.90;100.00;75048.19;4869775;28;101941;-73
2024/02/08 12:01:53;;;;;;;;;7.25;5.50;;;;;-143.90;100.00;75044.03;4868034;28;101619;-73
2024/02/08 12:04:23;;;;;;;;;3.50;3.50;;;;;-143.90;100.00;75029.56;4871305;28;102215;-73
2024/02/08 12:07:02;;;;;;;;;6.50;5.00;;;;;-143.90;100.00;75019.22;4868419;28;109342;-72
2024/02/08 12:09:31;;;;;;;;;4.50;3.00;;;;;-143.90;100.00;75006.84;4864530;28;101728;-73
2024/02/08 12:11:58;;;;;;;;;11.00;8.00;;;;;-143.90;100.00;75033.72;4867238;28;101932;-74
2024/02/08 12:14:26;;;;;;;;;8.00;6.50;;;;;-143.90;100.00;75029.56;4867927;28;102223;-74
2024/02/08 12:16:59;;;;;;;;;6.00;6.00;;;;;-143.90;100.00;75044.03;4875275;28;107997;-73
2024/02/08 12:19:30;;;;;;;;;20.00;15.25;;;;;-143.90;100.00;75091.59;4872100;28;101722;-74
2024/02/08 12:22:03;;;;;;;;;14.50;13.25;;;;;-143.90;100.00;75114.34;4858165;28;102014;-73
2024/02/08 12:24:31;;;;;;;;;13.50;9.25;;;;;-143.90;100.00;75114.34;4879792;28;101857;-73
2024/02/08 12:27:12;;;;;;;;;10.00;6.75;;;;;-143.90;100.00;75110.19;4879034;28;103410;-73
2024/02/08 12:29:46;;;;;;;;;17.75;14.50;;;;;-143.90;100.00;75151.53;4869261;28;102397;-73
2024/02/08 12:32:17;;;;;;;;;17.00;14.75;;;;;-143.90;100.00;75159.81;4872223;28;101793;-73
2024/02/08 12:34:47;;;;;;;;;22.00;20.25;;;;;-143.90;100.00;75186.69;4872074;28;102051;-73
2024/02/08 12:37:17;;;;;;;;;25.25;19.50;;;;;-143.90;100.00;75205.28;4870287;28;104850;-73
2024/02/08 12:39:45;;;;;;;;;23.50;19.75;;;;;-143.90;100.00;75190.81;4868249;28;101854;-73
2024/02/08 12:42:15;;;;;;;;;26.25;20.00;;;;;-143.90;100.00;75217.69;4881270;28;102038;-74
2024/02/08 12:44:48;;;;;;;;;18.25;16.00;;;;;-143.90;100.00;75205.28;4878519;28;101592;-73
2024/02/08 12:47:17;;;;;;;;;15.75;14.00;;;;;-143.90;100.00;75209.44;4849128;28;103368;-73
2024/02/08 12:49:46;;;;;;;;;21.75;15.00;;;;;-143.90;100.00;75213.56;4859941;28;104711;-74
2024/02/08 12:52:15;;;;;;;;;17.00;14.00;;;;;-143.90;100.00;75215.63;4875577;28;101839;-73
2024/02/08 12:54:53;;;;;;;;;13.50;10.00;;;;;-143.90;100.00;75192.91;4874669;28;101687;-73
2024/02/08 12:57:22;;;;;;;;;14.00;11.00;;;;;-143.90;100.00;75192.91;4868177;28;110949;-74
2024/02/08 13:00:12;;;;;;;;;19.50;17.75;;;;;-143.90;100.00;75205.28;4862451;28;101598;-73
2024/02/08 13:02:40;;;;;;;;;18.25;15.00;;;;;-143.90;100.00;75217.69;4873897;28;101583;-73
2024/02/08 13:05:07;;;;;;;;;21.75;18.25;;;;;-143.90;100.00;75232.19;4879158;28;101648;-73
2024/02/08 13:07:36;;;;;;;;;17.00;13.25;;;;;-143.90;100.00;75213.56;4865778;28;103362;-74
2024/02/08 13:10:14;;;;;;;;;14.25;13.00;;;;;-143.90;100.00;75199.09;4873459;28;101972;-73
2024/02/08 13:12:44;;;;;;;;;12.50;10.00;;;;;-143.90;100.00;75180.50;4876055;28;102185;-74
2024/02/08 13:15:20;;;;;;;;;10.50;9.00;;;;;-143.90;100.00;75176.34;4867952;28;101744;-73
2024/02/08 13:17:50;;;;;;;;;8.50;8.50;;;;;-143.90;100.00;75176.34;4857287;28;103651;-73
2024/02/08 13:20:18;;;;;;;;;9.50;7.00;;;;;-143.90;100.00;75174.28;4872893;28;102414;-74
2024/02/08 13:22:45;;;;;;;;;7.00;6.25;;;;;-143.90;100.00;75163.94;4869800;28;101830;-73
2024/02/08 13:25:12;;;;;;;;;8.75;7.00;;;;;-143.90;100.00;75163.94;4862870;28;101967;-73
2024/02/08 13:27:41;;;;;;;;;9.00;7.50;;;;;-143.90;100.00;75159.81;4864798;28;103316;-73
2024/02/08 13:30:17;;;;;;;;;26.75;22.00;;;;;-143.90;100.00;75184.63;4876213;28;101734;-74
2024/02/08 13:32:55;;;;;;;;;17.75;16.75;;;;;-143.90;100.00;75168.09;4867309;28;102230;-73
2024/02/08 13:35:23;;;;;;;;;17.25;16.25;;;;;-143.90;100.00;75174.28;4857801;28;101934;-73
2024/02/08 13:37:52;;;;;;;;;13.00;10.00;;;;;-143.90;100.00;75163.94;4861695;28;109629;-74
2024/02/08 13:40:22;;;;;;;;;10.50;6.75;;;;;-143.90;100.00;75157.75;4870743;28;102274;-73